sensor_id;sensor_type;location;lat;lon;timestamp;temperature;humidity
46752;DHT22;32497;48.936;9.270;2024-03-08T00:02:55;2.20;84.90
46752;DHT22;32497;48.936;9.270;2024-03-08T00:07:58;2.20;84.70
46752;DHT22;32497;48.936;9.270;2024-03-08T00:12:59;2.20;84.40
46752;DHT22;32497;48.936;9.270;2024-03-08T00:18:00;2.20;84.40
46752;DHT22;32497;48.936;9.270;2024-03-08T00:23:03;2.10;84.50
46752;DHT22;32497;48.936;9.270;2024-03-08T00:28:04;2.10;84.60
46752;DHT22;32497;48.936;9.270;2024-03-08T00:33:06;2.20;84.60
46752;DHT22;32497;48.936;9.270;2024-03-08T00:38:08;2.20;84.30
46752;DHT22;32497;48.936;9.270;2024-03-08T00:43:09;2.20;84.00
46752;DHT22;32497;48.936;9.270;2024-03-08T00:48:10;2.10;84.20
46752;DHT22;32497;48.936;9.270;2024-03-08T00:53:13;2.10;84.20
46752;DHT22;32497;48.936;9.270;2024-03-08T00:58:14;2.10;84.30
46752;DHT22;32497;48.936;9.270;2024-03-08T01:03:15;2.10;84.10
46752;DHT22;32497;48.936;9.270;2024-03-08T01:08:17;2.00;84.40
46752;DHT22;32497;48.936;9.270;2024-03-08T01:13:19;1.90;84.50
46752;DHT22;32497;48.936;9.270;2024-03-08T01:18:20;1.80;84.60
46752;DHT22;32497;48.936;9.270;2024-03-08T01:23:22;1.80;84.60
46752;DHT22;32497;48.936;9.270;2024-03-08T01:28:23;1.70;84.70
46752;DHT22;32497;48.936;9.270;2024-03-08T01:33:25;1.60;84.80
46752;DHT22;32497;48.936;9.270;2024-03-08T01:38:28;1.60;85.00
46752;DHT22;32497;48.936;9.270;2024-03-08T01:43:29;1.50;85.40
46752;DHT22;32497;48.936;9.270;2024-03-08T01:48:31;1.30;85.60
46752;DHT22;32497;48.936;9.270;2024-03-08T01:53:34;1.10;86.30
46752;DHT22;32497;48.936;9.270;2024-03-08T01:58:36;1.10;86.30
46752;DHT22;32497;48.936;9.270;2024-03-08T02:03:38;1.10;86.30
46752;DHT22;32497;48.936;9.270;2024-03-08T02:08:42;0.80;86.50
46752;DHT22;32497;48.936;9.270;2024-03-08T02:13:43;0.70;86.90
46752;DHT22;32497;48.936;9.270;2024-03-08T02:18:44;0.60;87.50
46752;DHT22;32497;48.936;9.270;2024-03-08T02:23:46;0.60;87.50
46752;DHT22;32497;48.936;9.270;2024-03-08T02:28:48;0.60;87.50
46752;DHT22;32497;48.936;9.270;2024-03-08T02:33:49;0.60;87.30
46752;DHT22;32497;48.936;9.270;2024-03-08T02:38:51;0.50;87.40
46752;DHT22;32497;48.936;9.270;2024-03-08T02:43:52;0.50;87.40
46752;DHT22;32497;48.936;9.270;2024-03-08T02:48:53;0.40;87.60
46752;DHT22;32497;48.936;9.270;2024-03-08T02:53:56;0.40;87.90
46752;DHT22;32497;48.936;9.270;2024-03-08T02:58:57;0.40;87.90
46752;DHT22;32497;48.936;9.270;2024-03-08T03:03:58;0.30;87.80
46752;DHT22;32497;48.936;9.270;2024-03-08T03:09:00;0.40;87.90
46752;DHT22;32497;48.936;9.270;2024-03-08T03:14:01;0.30;87.90
46752;DHT22;32497;48.936;9.270;2024-03-08T03:19:03;0.30;87.90
46752;DHT22;32497;48.936;9.270;2024-03-08T03:24:06;0.30;88.00
46752;DHT22;32497;48.936;9.270;2024-03-08T03:29:07;0.20;88.00
46752;DHT22;32497;48.936;9.270;2024-03-08T03:34:08;0.10;88.20
46752;DHT22;32497;48.936;9.270;2024-03-08T03:39:11;0.00;88.10
46752;DHT22;32497;48.936;9.270;2024-03-08T03:44:12;-3276.70;88.20
46752;DHT22;32497;48.936;9.270;2024-03-08T03:49:13;-3276.50;88.10
46752;DHT22;32497;48.936;9.270;2024-03-08T03:54:15;-3276.60;89.20
46752;DHT22;32497;48.936;9.270;2024-03-08T03:59:16;-3276.60;89.10
46752;DHT22;32497;48.936;9.270;2024-03-08T04:04:17;-3276.60;89.00
46752;DHT22;32497;48.936;9.270;2024-03-08T04:09:20;-3276.70;89.10
46752;DHT22;32497;48.936;9.270;2024-03-08T04:14:21;-3276.60;88.70
46752;DHT22;32497;48.936;9.270;2024-03-08T04:19:22;-3276.60;88.80
46752;DHT22;32497;48.936;9.270;2024-03-08T04:24:25;-3276.50;88.80
46752;DHT22;32497;48.936;9.270;2024-03-08T04:29:26;-3276.40;88.90
46752;DHT22;32497;48.936;9.270;2024-03-08T04:34:27;-3276.40;89.30
46752;DHT22;32497;48.936;9.270;2024-03-08T04:39:30;-3276.60;89.60
46752;DHT22;32497;48.936;9.270;2024-03-08T04:44:31;-3276.60;89.20
46752;DHT22;32497;48.936;9.270;2024-03-08T04:49:32;-3276.50;89.10
46752;DHT22;32497;48.936;9.270;2024-03-08T04:54:35;-3276.50;89.50
46752;DHT22;32497;48.936;9.270;2024-03-08T04:59:36;-3276.50;89.60
46752;DHT22;32497;48.936;9.270;2024-03-08T05:04:37;-3276.50;89.50
46752;DHT22;32497;48.936;9.270;2024-03-08T05:09:40;-3276.40;89.00
46752;DHT22;32497;48.936;9.270;2024-03-08T05:14:41;-3276.20;89.10
46752;DHT22;32497;48.936;9.270;2024-03-08T05:19:42;-3276.00;89.00
46752;DHT22;32497;48.936;9.270;2024-03-08T05:24:44;-3276.00;89.40
46752;DHT22;32497;48.936;9.270;2024-03-08T05:29:46;-3276.00;89.70
46752;DHT22;32497;48.936;9.270;2024-03-08T05:34:47;-3275.90;89.20
46752;DHT22;32497;48.936;9.270;2024-03-08T05:39:52;-3275.90;89.60
46752;DHT22;32497;48.936;9.270;2024-03-08T05:44:54;-3275.90;89.60
46752;DHT22;32497;48.936;9.270;2024-03-08T05:49:55;-3275.80;89.40
46752;DHT22;32497;48.936;9.270;2024-03-08T05:54:57;-3275.60;89.40
46752;DHT22;32497;48.936;9.270;2024-03-08T05:59:58;-3275.90;90.20
46752;DHT22;32497;48.936;9.270;2024-03-08T06:04:59;-3276.10;90.00
46752;DHT22;32497;48.936;9.270;2024-03-08T06:10:02;-3276.00;89.90
46752;DHT22;32497;48.936;9.270;2024-03-08T06:15:04;-3276.30;90.00
46752;DHT22;32497;48.936;9.270;2024-03-08T06:20:06;-3276.30;89.60
46752;DHT22;32497;48.936;9.270;2024-03-08T06:25:09;-3276.40;89.80
46752;DHT22;32497;48.936;9.270;2024-03-08T06:30:11;-3276.70;89.80
46752;DHT22;32497;48.936;9.270;2024-03-08T06:35:12;0.10;89.00
46752;DHT22;32497;48.936;9.270;2024-03-08T06:40:15;0.20;88.60
46752;DHT22;32497;48.936;9.270;2024-03-08T06:45:16;0.20;88.70
46752;DHT22;32497;48.936;9.270;2024-03-08T06:50:17;0.50;88.70
46752;DHT22;32497;48.936;9.270;2024-03-08T06:55:20;0.80;88.70
46752;DHT22;32497;48.936;9.270;2024-03-08T07:00:21;1.10;87.80
46752;DHT22;32497;48.936;9.270;2024-03-08T07:05:22;1.50;87.50
46752;DHT22;32497;48.936;9.270;2024-03-08T07:10:24;1.90;86.80
46752;DHT22;32497;48.936;9.270;2024-03-08T07:15:25;2.30;86.60
46752;DHT22;32497;48.936;9.270;2024-03-08T07:20:27;2.60;85.40
46752;DHT22;32497;48.936;9.270;2024-03-08T07:25:29;3.00;84.60
46752;DHT22;32497;48.936;9.270;2024-03-08T07:30:30;3.20;85.30
46752;DHT22;32497;48.936;9.270;2024-03-08T07:35:31;3.40;83.10
46752;DHT22;32497;48.936;9.270;2024-03-08T07:40:36;3.70;84.10
46752;DHT22;32497;48.936;9.270;2024-03-08T07:45:38;4.00;82.50
46752;DHT22;32497;48.936;9.270;2024-03-08T07:50:40;3.80;81.10
46752;DHT22;32497;48.936;9.270;2024-03-08T07:55:42;4.10;81.00
46752;DHT22;32497;48.936;9.270;2024-03-08T08:00:44;4.30;79.90
46752;DHT22;32497;48.936;9.270;2024-03-08T08:05:45;4.00;79.80
46752;DHT22;32497;48.936;9.270;2024-03-08T08:10:47;4.00;79.20
46752;DHT22;32497;48.936;9.270;2024-03-08T08:15:49;4.30;77.20
46752;DHT22;32497;48.936;9.270;2024-03-08T08:20:50;4.20;78.00
46752;DHT22;32497;48.936;9.270;2024-03-08T08:25:52;4.30;77.80
46752;DHT22;32497;48.936;9.270;2024-03-08T08:30:53;4.40;77.60
46752;DHT22;32497;48.936;9.270;2024-03-08T08:35:54;4.30;77.50
46752;DHT22;32497;48.936;9.270;2024-03-08T08:40:57;4.30;76.90
46752;DHT22;32497;48.936;9.270;2024-03-08T08:45:58;4.50;76.40
46752;DHT22;32497;48.936;9.270;2024-03-08T08:50:59;4.40;76.10
46752;DHT22;32497;48.936;9.270;2024-03-08T08:56:01;4.50;76.10
46752;DHT22;32497;48.936;9.270;2024-03-08T09:01:03;4.50;75.40
46752;DHT22;32497;48.936;9.270;2024-03-08T09:06:05;4.60;75.30
46752;DHT22;32497;48.936;9.270;2024-03-08T09:11:08;4.70;74.70
46752;DHT22;32497;48.936;9.270;2024-03-08T09:16:09;5.10;73.20
46752;DHT22;32497;48.936;9.270;2024-03-08T09:21:10;5.10;73.60
46752;DHT22;32497;48.936;9.270;2024-03-08T09:26:12;5.20;73.40
46752;DHT22;32497;48.936;9.270;2024-03-08T09:31:13;5.60;73.30
46752;DHT22;32497;48.936;9.270;2024-03-08T09:36:14;5.60;71.80
46752;DHT22;32497;48.936;9.270;2024-03-08T09:41:17;5.90;70.60
46752;DHT22;32497;48.936;9.270;2024-03-08T09:46:19;6.20;70.20
46752;DHT22;32497;48.936;9.270;2024-03-08T09:51:22;6.10;70.40
46752;DHT22;32497;48.936;9.270;2024-03-08T09:56:26;5.60;71.20
46752;DHT22;32497;48.936;9.270;2024-03-08T10:01:28;5.60;71.40
46752;DHT22;32497;48.936;9.270;2024-03-08T10:06:29;5.70;70.70
46752;DHT22;32497;48.936;9.270;2024-03-08T10:11:32;6.10;69.00
46752;DHT22;32497;48.936;9.270;2024-03-08T10:16:33;6.10;69.60
46752;DHT22;32497;48.936;9.270;2024-03-08T10:21:34;6.60;68.50
46752;DHT22;32497;48.936;9.270;2024-03-08T10:26:37;6.60;69.20
46752;DHT22;32497;48.936;9.270;2024-03-08T10:31:38;7.20;66.80
46752;DHT22;32497;48.936;9.270;2024-03-08T10:36:40;7.10;66.20
46752;DHT22;32497;48.936;9.270;2024-03-08T10:41:43;7.30;66.90
46752;DHT22;32497;48.936;9.270;2024-03-08T10:46:56;7.30;66.00
46752;DHT22;32497;48.936;9.270;2024-03-08T10:52:03;7.10;66.40
46752;DHT22;32497;48.936;9.270;2024-03-08T10:57:06;7.20;66.30
46752;DHT22;32497;48.936;9.270;2024-03-08T11:02:08;7.70;65.20
46752;DHT22;32497;48.936;9.270;2024-03-08T11:07:12;8.10;64.80
46752;DHT22;32497;48.936;9.270;2024-03-08T11:12:23;7.70;63.70
46752;DHT22;32497;48.936;9.270;2024-03-08T11:17:47;7.00;67.20
46752;DHT22;32497;48.936;9.270;2024-03-08T11:22:51;7.40;66.40
46752;DHT22;32497;48.936;9.270;2024-03-08T11:28:12;7.50;67.30
46752;DHT22;32497;48.936;9.270;2024-03-08T11:33:26;7.80;65.10
46752;DHT22;32497;48.936;9.270;2024-03-08T11:38:57;7.70;65.20
46752;DHT22;32497;48.936;9.270;2024-03-08T11:44:04;7.50;65.80
46752;DHT22;32497;48.936;9.270;2024-03-08T11:49:06;7.60;65.90
46752;DHT22;32497;48.936;9.270;2024-03-08T11:54:11;8.00;64.90
46752;DHT22;32497;48.936;9.270;2024-03-08T11:59:16;8.30;64.90
46752;DHT22;32497;48.936;9.270;2024-03-08T12:04:17;8.60;64.20
46752;DHT22;32497;48.936;9.270;2024-03-08T12:09:18;8.90;63.00
46752;DHT22;32497;48.936;9.270;2024-03-08T12:14:20;9.00;64.00
46752;DHT22;32497;48.936;9.270;2024-03-08T12:19:22;9.30;61.70
46752;DHT22;32497;48.936;9.270;2024-03-08T12:24:23;9.30;60.00
46752;DHT22;32497;48.936;9.270;2024-03-08T12:29:25;9.50;61.40
46752;DHT22;32497;48.936;9.270;2024-03-08T12:34:27;9.90;59.90
46752;DHT22;32497;48.936;9.270;2024-03-08T12:39:30;11.40;56.10
46752;DHT22;32497;48.936;9.270;2024-03-08T12:44:32;13.80;51.10
46752;DHT22;32497;48.936;9.270;2024-03-08T12:49:34;15.70;45.20
46752;DHT22;32497;48.936;9.270;2024-03-08T12:54:35;16.20;42.00
46752;DHT22;32497;48.936;9.270;2024-03-08T12:59:37;16.70;42.30
46752;DHT22;32497;48.936;9.270;2024-03-08T13:04:38;17.40;40.80
46752;DHT22;32497;48.936;9.270;2024-03-08T13:09:39;17.50;39.20
46752;DHT22;32497;48.936;9.270;2024-03-08T13:14:42;16.40;40.90
46752;DHT22;32497;48.936;9.270;2024-03-08T13:19:43;17.40;40.30
46752;DHT22;32497;48.936;9.270;2024-03-08T13:24:44;17.70;38.60
46752;DHT22;32497;48.936;9.270;2024-03-08T13:29:47;18.10;37.80
46752;DHT22;32497;48.936;9.270;2024-03-08T13:34:49;19.10;35.60
46752;DHT22;32497;48.936;9.270;2024-03-08T13:39:50;19.60;36.00
46752;DHT22;32497;48.936;9.270;2024-03-08T13:44:52;19.90;34.90
46752;DHT22;32497;48.936;9.270;2024-03-08T13:49:53;19.90;34.60
46752;DHT22;32497;48.936;9.270;2024-03-08T13:54:54;19.90;34.50
46752;DHT22;32497;48.936;9.270;2024-03-08T13:59:57;20.30;34.20
46752;DHT22;32497;48.936;9.270;2024-03-08T14:04:58;20.00;34.50
46752;DHT22;32497;48.936;9.270;2024-03-08T14:09:59;20.10;33.80
46752;DHT22;32497;48.936;9.270;2024-03-08T14:15:02;18.80;35.40
46752;DHT22;32497;48.936;9.270;2024-03-08T14:20:03;19.10;35.50
46752;DHT22;32497;48.936;9.270;2024-03-08T14:25:05;19.20;35.60
46752;DHT22;32497;48.936;9.270;2024-03-08T14:30:09;20.50;33.70
46752;DHT22;32497;48.936;9.270;2024-03-08T14:35:10;20.60;33.30
46752;DHT22;32497;48.936;9.270;2024-03-08T14:40:11;19.90;33.70
46752;DHT22;32497;48.936;9.270;2024-03-08T14:45:14;19.40;34.50
46752;DHT22;32497;48.936;9.270;2024-03-08T14:50:16;18.20;37.00
46752;DHT22;32497;48.936;9.270;2024-03-08T14:55:17;18.20;37.20
46752;DHT22;32497;48.936;9.270;2024-03-08T15:00:21;17.80;37.40
46752;DHT22;32497;48.936;9.270;2024-03-08T15:05:22;17.90;38.80
46752;DHT22;32497;48.936;9.270;2024-03-08T15:10:23;16.60;39.90
46752;DHT22;32497;48.936;9.270;2024-03-08T15:15:25;16.50;39.70
46752;DHT22;32497;48.936;9.270;2024-03-08T15:20:27;16.70;39.50
46752;DHT22;32497;48.936;9.270;2024-03-08T15:25:28;17.00;40.10
46752;DHT22;32497;48.936;9.270;2024-03-08T15:30:30;16.60;39.90
46752;DHT22;32497;48.936;9.270;2024-03-08T15:35:31;15.20;44.70
46752;DHT22;32497;48.936;9.270;2024-03-08T15:40:32;14.00;46.70
46752;DHT22;32497;48.936;9.270;2024-03-08T15:45:35;13.10;49.30
46752;DHT22;32497;48.936;9.270;2024-03-08T15:50:36;12.60;51.10
46752;DHT22;32497;48.936;9.270;2024-03-08T15:55:37;12.50;52.30
46752;DHT22;32497;48.936;9.270;2024-03-08T16:00:40;12.40;52.30
46752;DHT22;32497;48.936;9.270;2024-03-08T16:05:41;12.00;53.80
46752;DHT22;32497;48.936;9.270;2024-03-08T16:10:43;11.50;54.50
46752;DHT22;32497;48.936;9.270;2024-03-08T16:15:46;11.00;55.80
46752;DHT22;32497;48.936;9.270;2024-03-08T16:20:49;10.70;57.90
46752;DHT22;32497;48.936;9.270;2024-03-08T16:25:51;10.50;59.00
46752;DHT22;32497;48.936;9.270;2024-03-08T16:30:53;10.20;60.20
46752;DHT22;32497;48.936;9.270;2024-03-08T16:35:55;10.10;60.70
46752;DHT22;32497;48.936;9.270;2024-03-08T16:40:56;9.80;61.10
46752;DHT22;32497;48.936;9.270;2024-03-08T16:45:58;9.70;59.50
46752;DHT22;32497;48.936;9.270;2024-03-08T16:50:59;9.50;61.60
46752;DHT22;32497;48.936;9.270;2024-03-08T16:56:01;9.20;62.70
46752;DHT22;32497;48.936;9.270;2024-03-08T17:01:03;9.00;62.20
46752;DHT22;32497;48.936;9.270;2024-03-08T17:06:05;8.80;62.50
46752;DHT22;32497;48.936;9.270;2024-03-08T17:11:06;8.60;63.70
46752;DHT22;32497;48.936;9.270;2024-03-08T17:16:08;8.40;63.50
46752;DHT22;32497;48.936;9.270;2024-03-08T17:21:09;8.10;65.60
46752;DHT22;32497;48.936;9.270;2024-03-08T17:26:11;8.00;65.60
46752;DHT22;32497;48.936;9.270;2024-03-08T17:31:14;7.80;65.80
46752;DHT22;32497;48.936;9.270;2024-03-08T17:36:15;7.60;66.70
46752;DHT22;32497;48.936;9.270;2024-03-08T17:41:17;7.40;66.70
46752;DHT22;32497;48.936;9.270;2024-03-08T17:46:19;7.40;66.60
46752;DHT22;32497;48.936;9.270;2024-03-08T17:51:20;7.40;66.40
46752;DHT22;32497;48.936;9.270;2024-03-08T17:56:21;7.30;66.40
46752;DHT22;32497;48.936;9.270;2024-03-08T18:01:24;7.30;65.20
46752;DHT22;32497;48.936;9.270;2024-03-08T18:06:25;7.20;65.40
46752;DHT22;32497;48.936;9.270;2024-03-08T18:11:26;7.10;65.80
46752;DHT22;32497;48.936;9.270;2024-03-08T18:16:28;7.00;65.10
46752;DHT22;32497;48.936;9.270;2024-03-08T18:21:30;6.90;66.30
46752;DHT22;32497;48.936;9.270;2024-03-08T18:26:31;6.80;66.30
46752;DHT22;32497;48.936;9.270;2024-03-08T18:31:33;6.70;65.60
46752;DHT22;32497;48.936;9.270;2024-03-08T18:36:35;6.80;64.80
46752;DHT22;32497;48.936;9.270;2024-03-08T18:41:36;6.70;65.40
46752;DHT22;32497;48.936;9.270;2024-03-08T18:46:38;6.60;65.40
46752;DHT22;32497;48.936;9.270;2024-03-08T18:51:39;6.60;65.90
46752;DHT22;32497;48.936;9.270;2024-03-08T18:56:40;6.50;66.40
46752;DHT22;32497;48.936;9.270;2024-03-08T19:01:43;6.40;67.20
46752;DHT22;32497;48.936;9.270;2024-03-08T19:06:44;6.30;67.20
46752;DHT22;32497;48.936;9.270;2024-03-08T19:11:45;6.10;67.70
46752;DHT22;32497;48.936;9.270;2024-03-08T19:16:48;6.10;67.20
46752;DHT22;32497;48.936;9.270;2024-03-08T19:21:49;5.90;68.00
46752;DHT22;32497;48.936;9.270;2024-03-08T19:26:50;5.70;68.70
46752;DHT22;32497;48.936;9.270;2024-03-08T19:31:52;5.50;69.70
46752;DHT22;32497;48.936;9.270;2024-03-08T19:36:53;5.40;70.10
46752;DHT22;32497;48.936;9.270;2024-03-08T19:41:55;5.60;68.80
46752;DHT22;32497;48.936;9.270;2024-03-08T19:46:57;5.80;67.50
46752;DHT22;32497;48.936;9.270;2024-03-08T19:51:58;5.90;66.80
46752;DHT22;32497;48.936;9.270;2024-03-08T19:56:59;5.80;67.00
46752;DHT22;32497;48.936;9.270;2024-03-08T20:02:02;5.70;67.50
46752;DHT22;32497;48.936;9.270;2024-03-08T20:07:03;5.40;69.30
46752;DHT22;32497;48.936;9.270;2024-03-08T20:12:05;5.10;70.50
46752;DHT22;32497;48.936;9.270;2024-03-08T20:17:08;4.90;70.30
46752;DHT22;32497;48.936;9.270;2024-03-08T20:22:09;4.90;70.00
46752;DHT22;32497;48.936;9.270;2024-03-08T20:27:10;4.70;71.00
46752;DHT22;32497;48.936;9.270;2024-03-08T20:32:12;4.70;70.80
46752;DHT22;32497;48.936;9.270;2024-03-08T20:37:13;4.60;71.20
46752;DHT22;32497;48.936;9.270;2024-03-08T20:42:15;4.40;72.40
46752;DHT22;32497;48.936;9.270;2024-03-08T20:47:17;4.10;73.40
46752;DHT22;32497;48.936;9.270;2024-03-08T20:52:18;4.00;74.20
46752;DHT22;32497;48.936;9.270;2024-03-08T20:57:19;3.90;74.40
46752;DHT22;32497;48.936;9.270;2024-03-08T21:02:22;3.70;75.50
46752;DHT22;32497;48.936;9.270;2024-03-08T21:07:23;3.60;75.00
46752;DHT22;32497;48.936;9.270;2024-03-08T21:12:24;3.60;75.20
46752;DHT22;32497;48.936;9.270;2024-03-08T21:17:27;3.80;74.10
46752;DHT22;32497;48.936;9.270;2024-03-08T21:22:28;4.10;73.60
46752;DHT22;32497;48.936;9.270;2024-03-08T21:27:29;3.90;73.40
46752;DHT22;32497;48.936;9.270;2024-03-08T21:32:31;3.80;74.10
46752;DHT22;32497;48.936;9.270;2024-03-08T21:37:32;3.70;74.20
46752;DHT22;32497;48.936;9.270;2024-03-08T21:42:33;3.60;74.70
46752;DHT22;32497;48.936;9.270;2024-03-08T21:47:36;3.40;75.10
46752;DHT22;32497;48.936;9.270;2024-03-08T21:52:37;3.40;74.90
46752;DHT22;32497;48.936;9.270;2024-03-08T21:57:38;3.60;74.40
46752;DHT22;32497;48.936;9.270;2024-03-08T22:02:42;3.50;75.00
46752;DHT22;32497;48.936;9.270;2024-03-08T22:07:43;3.40;75.00
46752;DHT22;32497;48.936;9.270;2024-03-08T22:12:44;3.30;74.90
46752;DHT22;32497;48.936;9.270;2024-03-08T22:17:47;3.10;74.90
46752;DHT22;32497;48.936;9.270;2024-03-08T22:22:48;3.10;75.70
46752;DHT22;32497;48.936;9.270;2024-03-08T22:27:50;3.10;76.30
46752;DHT22;32497;48.936;9.270;2024-03-08T22:32:52;3.50;75.70
46752;DHT22;32497;48.936;9.270;2024-03-08T22:37:53;3.80;74.90
46752;DHT22;32497;48.936;9.270;2024-03-08T22:42:54;4.10;74.40
46752;DHT22;32497;48.936;9.270;2024-03-08T22:47:57;4.10;74.40
46752;DHT22;32497;48.936;9.270;2024-03-08T22:52:58;4.10;74.40
46752;DHT22;32497;48.936;9.270;2024-03-08T22:57:59;4.10;74.60
46752;DHT22;32497;48.936;9.270;2024-03-08T23:03:01;4.20;74.40
46752;DHT22;32497;48.936;9.270;2024-03-08T23:08:03;4.10;74.90
46752;DHT22;32497;48.936;9.270;2024-03-08T23:13:04;4.10;74.80
46752;DHT22;32497;48.936;9.270;2024-03-08T23:18:07;4.10;74.60
46752;DHT22;32497;48.936;9.270;2024-03-08T23:23:09;4.10;75.10
46752;DHT22;32497;48.936;9.270;2024-03-08T23:28:11;3.90;75.30
46752;DHT22;32497;48.936;9.270;2024-03-08T23:33:13;4.00;75.30
46752;DHT22;32497;48.936;9.270;2024-03-08T23:38:14;4.00;75.30
46752;DHT22;32497;48.936;9.270;2024-03-08T23:43:15;3.90;75.50
46752;DHT22;32497;48.936;9.270;2024-03-08T23:48:18;4.00;75.80
46752;DHT22;32497;48.936;9.270;2024-03-08T23:53:19;3.90;76.00
46752;DHT22;32497;48.936;9.270;2024-03-08T23:58:21;3.80;76.10
